Brookline, MO (65619)

9:57 AM CDT on September 02, 2015 (GMT -0500)
Forest Ridge Place | | Change Station
CLOSE
Current Station
Personal Weather Station
Location: Battlefield, MO
Elevation: 1260 ft
Nearby Weather Stations

Elev 1260 ft 37.13 °N, 93.37 °W | Updated 7 minutes ago

Clear
Clear
79.5 °F
Feels Like 83 °F
N
2.2
Wind Variable Wind from SW

Today
High -- | Low -- °F
--% Chance of Precip.
Yesterday
High -- | Low -- °F
Precip. -- in
6:44 AM 7:41 PM
Waning Gibbous, 79% visible
Pressure 30.08 in
Visibility 10.0 miles
Clouds Clear
Heat Index 83 °F
Dew Point 70 °F
Humidity 74%
Rainfall 0.00 in
Snow Depth Not available.
UV 4 out of 12
Pollen 10.90 out of 12
Air Quality Not available.
Flu Activity Not available.
METAR KSGF 021452Z 19007KT 10SM CLR 26/20 A3012 RMK AO2 SLP185 T02560200 51007
Pressure 30.08 in
Visibility 10.0 miles
Clouds Clear
Heat Index 83 °F
Dew Point 70 °F
Humidity 74%
Rainfall 0.00 in
Snow Depth Not available.
UV 4 out of 12
Pollen 10.90 out of 12
Air Quality Not available.
Flu Activity Not available.
METAR KSGF 021452Z 19007KT 10SM CLR 26/20 A3012 RMK AO2 SLP185 T02560200 51007

10-Day Weather Forecast

×

Almanac

Astronomy

Sep. 02, 2015 Rise Set
Actual Time
Civil Twilight
Nautical Twilight
Astronomical Twilight
Moon
Length of Visible Light
Length of Day
Tomorrow will be .
, % of the Moon is Illuminated

Today's Extremes

State Highs State Lows

Community

WunderPhotos

Upload Photos

1,851,763 photos uploaded!

WunderBlogs® & News

Nearby

Air Quality

  Air Quality AQ Index Pollutant
Not available.

Snow Depth

Station Depth Elevation

Earthquake Activity

City Distance Mag. Time & Date
Minimum magnitude displayed is 2.5.

Coastal Water Temperatures

Place Temperature

Stations

Nearby Weather Stations

Station Location Temp. Windchill Dew Point Humidity Wind Precip. Elev Updated Type